sensor_id;sensor_type;location;lat;lon;timestamp;temperature;humidity
68387;DHT22;55338;43.062;25.624;2022-12-07T00:01:59;6.20;99.90
68387;DHT22;55338;43.062;25.624;2022-12-07T00:04:07;6.20;99.90
68387;DHT22;55338;43.062;25.624;2022-12-07T00:09:01;6.30;99.90
68387;DHT22;55338;43.062;25.624;2022-12-07T00:11:27;6.30;99.90
68387;DHT22;55338;43.062;25.624;2022-12-07T00:13:55;6.30;99.90
68387;DHT22;55338;43.062;25.624;2022-12-07T00:16:23;6.40;99.90
68387;DHT22;55338;43.062;25.624;2022-12-07T00:18:49;6.40;99.90
68387;DHT22;55338;43.062;25.624;2022-12-07T00:21:18;6.40;99.90
68387;DHT22;55338;43.062;25.624;2022-12-07T00:23:45;6.40;99.90
68387;DHT22;55338;43.062;25.624;2022-12-07T00:26:16;6.30;99.90
68387;DHT22;55338;43.062;25.624;2022-12-07T00:28:53;6.30;99.90
68387;DHT22;55338;43.062;25.624;2022-12-07T00:31:21;6.30;99.90
68387;DHT22;55338;43.062;25.624;2022-12-07T00:33:47;6.30;99.90
68387;DHT22;55338;43.062;25.624;2022-12-07T00:36:18;6.40;99.90
68387;DHT22;55338;43.062;25.624;2022-12-07T00:38:45;6.40;99.90
68387;DHT22;55338;43.062;25.624;2022-12-07T00:41:16;6.50;99.90
68387;DHT22;55338;43.062;25.624;2022-12-07T00:43:43;6.40;99.90
68387;DHT22;55338;43.062;25.624;2022-12-07T00:46:10;6.40;99.90
68387;DHT22;55338;43.062;25.624;2022-12-07T00:48:36;6.40;99.90
68387;DHT22;55338;43.062;25.624;2022-12-07T00:51:03;6.50;99.90
68387;DHT22;55338;43.062;25.624;2022-12-07T00:53:29;6.50;99.90
68387;DHT22;55338;43.062;25.624;2022-12-07T00:55:55;6.50;99.90
68387;DHT22;55338;43.062;25.624;2022-12-07T00:58:22;6.50;99.90
68387;DHT22;55338;43.062;25.624;2022-12-07T01:00:48;6.50;99.90
68387;DHT22;55338;43.062;25.624;2022-12-07T01:03:15;6.50;99.90
68387;DHT22;55338;43.062;25.624;2022-12-07T01:05:51;6.50;99.90
68387;DHT22;55338;43.062;25.624;2022-12-07T01:08:18;6.50;99.90
68387;DHT22;55338;43.062;25.624;2022-12-07T01:10:44;6.50;99.90
68387;DHT22;55338;43.062;25.624;2022-12-07T01:13:09;6.50;99.90
68387;DHT22;55338;43.062;25.624;2022-12-07T01:15:41;6.50;99.90
68387;DHT22;55338;43.062;25.624;2022-12-07T01:18:07;6.40;99.90
68387;DHT22;55338;43.062;25.624;2022-12-07T01:20:32;6.40;99.90
68387;DHT22;55338;43.062;25.624;2022-12-07T01:22:58;6.40;99.90
68387;DHT22;55338;43.062;25.624;2022-12-07T01:25:24;6.50;99.90
68387;DHT22;55338;43.062;25.624;2022-12-07T01:27:50;6.50;99.90
68387;DHT22;55338;43.062;25.624;2022-12-07T01:30:16;6.40;99.90
68387;DHT22;55338;43.062;25.624;2022-12-07T01:32:41;6.40;99.90
68387;DHT22;55338;43.062;25.624;2022-12-07T01:35:07;6.40;99.90
68387;DHT22;55338;43.062;25.624;2022-12-07T01:37:38;6.20;99.90
68387;DHT22;55338;43.062;25.624;2022-12-07T01:40:08;6.30;99.90
68387;DHT22;55338;43.062;25.624;2022-12-07T01:42:34;6.20;99.90
68387;DHT22;55338;43.062;25.624;2022-12-07T01:47:52;6.20;99.90
68387;DHT22;55338;43.062;25.624;2022-12-07T01:50:20;6.30;99.90
68387;DHT22;55338;43.062;25.624;2022-12-07T01:52:48;6.30;99.90
68387;DHT22;55338;43.062;25.624;2022-12-07T01:55:15;6.30;99.90
68387;DHT22;55338;43.062;25.624;2022-12-07T01:57:44;6.30;99.90
68387;DHT22;55338;43.062;25.624;2022-12-07T02:00:12;6.40;99.90
68387;DHT22;55338;43.062;25.624;2022-12-07T02:02:48;6.30;99.90
68387;DHT22;55338;43.062;25.624;2022-12-07T02:05:17;6.30;99.90
68387;DHT22;55338;43.062;25.624;2022-12-07T02:07:44;6.20;99.90
68387;DHT22;55338;43.062;25.624;2022-12-07T02:10:21;6.30;99.90
68387;DHT22;55338;43.062;25.624;2022-12-07T02:13:04;6.30;99.90
68387;DHT22;55338;43.062;25.624;2022-12-07T02:16:02;6.30;99.90
68387;DHT22;55338;43.062;25.624;2022-12-07T02:29:35;6.30;99.90
68387;DHT22;55338;43.062;25.624;2022-12-07T02:34:50;6.30;99.90
68387;DHT22;55338;43.062;25.624;2022-12-07T02:39:59;6.40;99.90
68387;DHT22;55338;43.062;25.624;2022-12-07T02:42:37;6.40;99.90
68387;DHT22;55338;43.062;25.624;2022-12-07T02:45:06;6.40;99.90
68387;DHT22;55338;43.062;25.624;2022-12-07T02:47:34;6.40;99.90
68387;DHT22;55338;43.062;25.624;2022-12-07T02:50:04;6.40;99.90
68387;DHT22;55338;43.062;25.624;2022-12-07T02:52:30;6.40;99.90
68387;DHT22;55338;43.062;25.624;2022-12-07T02:54:56;6.40;99.90
68387;DHT22;55338;43.062;25.624;2022-12-07T02:57:42;6.40;99.90
68387;DHT22;55338;43.062;25.624;2022-12-07T03:00:18;6.40;99.90
68387;DHT22;55338;43.062;25.624;2022-12-07T03:08:21;6.20;99.90
68387;DHT22;55338;43.062;25.624;2022-12-07T03:11:29;6.20;99.90
68387;DHT22;55338;43.062;25.624;2022-12-07T03:14:08;6.10;99.90
68387;DHT22;55338;43.062;25.624;2022-12-07T03:16:57;6.00;99.90
68387;DHT22;55338;43.062;25.624;2022-12-07T03:19:26;6.00;99.90
68387;DHT22;55338;43.062;25.624;2022-12-07T03:22:01;6.00;99.90
68387;DHT22;55338;43.062;25.624;2022-12-07T03:24:33;6.00;99.90
68387;DHT22;55338;43.062;25.624;2022-12-07T03:27:20;5.90;99.90
68387;DHT22;55338;43.062;25.624;2022-12-07T03:29:59;5.80;99.90
68387;DHT22;55338;43.062;25.624;2022-12-07T03:37:32;5.80;99.90
68387;DHT22;55338;43.062;25.624;2022-12-07T03:42:39;5.90;99.90
68387;DHT22;55338;43.062;25.624;2022-12-07T03:45:06;5.90;99.90
68387;DHT22;55338;43.062;25.624;2022-12-07T03:52:44;5.90;99.90
68387;DHT22;55338;43.062;25.624;2022-12-07T03:55:38;5.90;99.90
68387;DHT22;55338;43.062;25.624;2022-12-07T03:58:12;5.90;99.90
68387;DHT22;55338;43.062;25.624;2022-12-07T04:00:38;5.90;99.90
68387;DHT22;55338;43.062;25.624;2022-12-07T04:03:04;5.80;99.90
68387;DHT22;55338;43.062;25.624;2022-12-07T04:05:31;5.80;99.90
68387;DHT22;55338;43.062;25.624;2022-12-07T04:07:57;5.80;99.90
68387;DHT22;55338;43.062;25.624;2022-12-07T04:10:22;5.80;99.90
68387;DHT22;55338;43.062;25.624;2022-12-07T04:12:48;5.80;99.90
68387;DHT22;55338;43.062;25.624;2022-12-07T04:15:14;5.80;99.90
68387;DHT22;55338;43.062;25.624;2022-12-07T04:17:40;5.80;99.90
68387;DHT22;55338;43.062;25.624;2022-12-07T04:20:06;5.90;99.90
68387;DHT22;55338;43.062;25.624;2022-12-07T04:22:33;5.90;99.90
68387;DHT22;55338;43.062;25.624;2022-12-07T04:24:58;6.00;99.90
68387;DHT22;55338;43.062;25.624;2022-12-07T04:27:24;6.00;99.90
68387;DHT22;55338;43.062;25.624;2022-12-07T04:29:50;6.00;99.90
68387;DHT22;55338;43.062;25.624;2022-12-07T04:32:16;6.10;99.90
68387;DHT22;55338;43.062;25.624;2022-12-07T04:34:41;6.10;99.90
68387;DHT22;55338;43.062;25.624;2022-12-07T04:37:07;6.10;99.90
68387;DHT22;55338;43.062;25.624;2022-12-07T04:39:33;6.10;99.90
68387;DHT22;55338;43.062;25.624;2022-12-07T04:42:00;6.20;99.90
68387;DHT22;55338;43.062;25.624;2022-12-07T04:44:27;6.20;99.90
68387;DHT22;55338;43.062;25.624;2022-12-07T04:46:53;6.10;99.90
68387;DHT22;55338;43.062;25.624;2022-12-07T04:49:20;6.20;99.90
68387;DHT22;55338;43.062;25.624;2022-12-07T04:51:46;6.20;99.90
68387;DHT22;55338;43.062;25.624;2022-12-07T04:54:13;6.30;99.90
68387;DHT22;55338;43.062;25.624;2022-12-07T04:56:38;6.30;99.90
68387;DHT22;55338;43.062;25.624;2022-12-07T04:59:05;6.30;99.90
68387;DHT22;55338;43.062;25.624;2022-12-07T05:01:31;6.30;99.90
68387;DHT22;55338;43.062;25.624;2022-12-07T05:03:57;6.30;99.90
68387;DHT22;55338;43.062;25.624;2022-12-07T05:06:23;6.30;99.90
68387;DHT22;55338;43.062;25.624;2022-12-07T05:08:49;6.30;99.90
68387;DHT22;55338;43.062;25.624;2022-12-07T05:11:15;6.20;99.90
68387;DHT22;55338;43.062;25.624;2022-12-07T05:14:00;6.20;99.90
68387;DHT22;55338;43.062;25.624;2022-12-07T05:16:26;6.20;99.90
68387;DHT22;55338;43.062;25.624;2022-12-07T05:18:51;6.20;99.90
68387;DHT22;55338;43.062;25.624;2022-12-07T05:21:17;6.20;99.90
68387;DHT22;55338;43.062;25.624;2022-12-07T05:23:43;6.20;99.90
68387;DHT22;55338;43.062;25.624;2022-12-07T05:26:09;6.20;99.90
68387;DHT22;55338;43.062;25.624;2022-12-07T05:28:35;6.10;99.90
68387;DHT22;55338;43.062;25.624;2022-12-07T05:31:01;6.10;99.90
68387;DHT22;55338;43.062;25.624;2022-12-07T05:33:27;6.20;99.90
68387;DHT22;55338;43.062;25.624;2022-12-07T05:35:53;6.10;99.90
68387;DHT22;55338;43.062;25.624;2022-12-07T05:38:18;6.10;99.90
68387;DHT22;55338;43.062;25.624;2022-12-07T05:40:44;6.10;99.90
68387;DHT22;55338;43.062;25.624;2022-12-07T05:43:10;6.10;99.90
68387;DHT22;55338;43.062;25.624;2022-12-07T05:45:36;6.10;99.90
68387;DHT22;55338;43.062;25.624;2022-12-07T05:48:01;6.00;99.90
68387;DHT22;55338;43.062;25.624;2022-12-07T05:50:27;5.90;99.90
68387;DHT22;55338;43.062;25.624;2022-12-07T05:52:53;5.90;99.90
68387;DHT22;55338;43.062;25.624;2022-12-07T05:55:19;5.90;99.90
68387;DHT22;55338;43.062;25.624;2022-12-07T05:57:45;5.90;99.90
68387;DHT22;55338;43.062;25.624;2022-12-07T06:00:31;5.90;99.90
68387;DHT22;55338;43.062;25.624;2022-12-07T06:02:58;5.90;99.90
68387;DHT22;55338;43.062;25.624;2022-12-07T06:05:24;5.90;99.90
68387;DHT22;55338;43.062;25.624;2022-12-07T06:07:49;5.90;99.90
68387;DHT22;55338;43.062;25.624;2022-12-07T06:10:15;5.90;99.90
68387;DHT22;55338;43.062;25.624;2022-12-07T06:12:41;5.90;99.90
68387;DHT22;55338;43.062;25.624;2022-12-07T06:15:09;5.90;99.90
68387;DHT22;55338;43.062;25.624;2022-12-07T06:17:36;5.90;99.90
68387;DHT22;55338;43.062;25.624;2022-12-07T06:20:02;5.90;99.90
68387;DHT22;55338;43.062;25.624;2022-12-07T06:22:28;6.00;99.90
68387;DHT22;55338;43.062;25.624;2022-12-07T06:24:54;6.00;99.90
68387;DHT22;55338;43.062;25.624;2022-12-07T06:27:20;6.00;99.90
68387;DHT22;55338;43.062;25.624;2022-12-07T06:29:46;6.10;99.90
68387;DHT22;55338;43.062;25.624;2022-12-07T06:32:12;6.10;99.90
68387;DHT22;55338;43.062;25.624;2022-12-07T06:34:38;6.20;99.90
68387;DHT22;55338;43.062;25.624;2022-12-07T06:37:04;6.20;99.90
68387;DHT22;55338;43.062;25.624;2022-12-07T06:39:30;6.40;99.90
68387;DHT22;55338;43.062;25.624;2022-12-07T06:41:57;6.50;99.90
68387;DHT22;55338;43.062;25.624;2022-12-07T06:44:23;6.60;99.90
68387;DHT22;55338;43.062;25.624;2022-12-07T06:46:49;6.70;99.90
68387;DHT22;55338;43.062;25.624;2022-12-07T06:49:15;6.80;99.90
68387;DHT22;55338;43.062;25.624;2022-12-07T06:51:42;6.90;99.90
68387;DHT22;55338;43.062;25.624;2022-12-07T06:54:09;6.90;99.90
68387;DHT22;55338;43.062;25.624;2022-12-07T06:56:37;7.00;99.90
68387;DHT22;55338;43.062;25.624;2022-12-07T06:59:06;7.00;99.90
68387;DHT22;55338;43.062;25.624;2022-12-07T07:01:34;7.10;99.90
68387;DHT22;55338;43.062;25.624;2022-12-07T07:04:00;7.20;99.90
68387;DHT22;55338;43.062;25.624;2022-12-07T07:06:26;7.30;99.90
68387;DHT22;55338;43.062;25.624;2022-12-07T07:08:52;7.40;99.90
68387;DHT22;55338;43.062;25.624;2022-12-07T07:11:18;7.40;99.90
68387;DHT22;55338;43.062;25.624;2022-12-07T07:13:44;7.40;99.90
68387;DHT22;55338;43.062;25.624;2022-12-07T07:16:10;7.40;99.90
68387;DHT22;55338;43.062;25.624;2022-12-07T07:18:36;7.50;99.90
68387;DHT22;55338;43.062;25.624;2022-12-07T07:21:02;7.50;99.90
68387;DHT22;55338;43.062;25.624;2022-12-07T07:23:28;7.50;99.90
68387;DHT22;55338;43.062;25.624;2022-12-07T07:25:54;7.50;99.90
68387;DHT22;55338;43.062;25.624;2022-12-07T07:28:20;7.60;99.90
68387;DHT22;55338;43.062;25.624;2022-12-07T07:30:47;7.70;99.90
68387;DHT22;55338;43.062;25.624;2022-12-07T07:33:12;7.80;99.90
68387;DHT22;55338;43.062;25.624;2022-12-07T07:35:38;7.80;99.90
68387;DHT22;55338;43.062;25.624;2022-12-07T07:38:05;7.90;99.90
68387;DHT22;55338;43.062;25.624;2022-12-07T07:40:31;8.00;99.90
68387;DHT22;55338;43.062;25.624;2022-12-07T07:42:58;8.00;99.90
68387;DHT22;55338;43.062;25.624;2022-12-07T07:45:25;7.90;99.90
68387;DHT22;55338;43.062;25.624;2022-12-07T07:47:52;7.90;99.90
68387;DHT22;55338;43.062;25.624;2022-12-07T07:50:18;8.00;99.90
68387;DHT22;55338;43.062;25.624;2022-12-07T07:52:44;8.50;99.90
68387;DHT22;55338;43.062;25.624;2022-12-07T07:55:11;8.60;99.90
68387;DHT22;55338;43.062;25.624;2022-12-07T07:57:38;8.50;99.90
68387;DHT22;55338;43.062;25.624;2022-12-07T08:00:08;8.60;99.90
68387;DHT22;55338;43.062;25.624;2022-12-07T08:02:34;8.50;99.90
68387;DHT22;55338;43.062;25.624;2022-12-07T08:05:01;8.50;99.90
68387;DHT22;55338;43.062;25.624;2022-12-07T08:07:28;8.00;99.90
68387;DHT22;55338;43.062;25.624;2022-12-07T08:09:54;8.40;99.90
68387;DHT22;55338;43.062;25.624;2022-12-07T08:12:21;8.30;99.90
68387;DHT22;55338;43.062;25.624;2022-12-07T08:14:47;8.30;99.90
68387;DHT22;55338;43.062;25.624;2022-12-07T08:17:13;8.30;99.90
68387;DHT22;55338;43.062;25.624;2022-12-07T08:19:38;8.50;99.90
68387;DHT22;55338;43.062;25.624;2022-12-07T08:22:04;8.70;99.90
68387;DHT22;55338;43.062;25.624;2022-12-07T08:24:33;8.70;99.90
68387;DHT22;55338;43.062;25.624;2022-12-07T08:26:59;8.70;99.90
68387;DHT22;55338;43.062;25.624;2022-12-07T08:29:25;8.80;99.90
68387;DHT22;55338;43.062;25.624;2022-12-07T08:31:51;8.80;99.90
68387;DHT22;55338;43.062;25.624;2022-12-07T08:34:17;9.20;99.90
68387;DHT22;55338;43.062;25.624;2022-12-07T08:36:43;9.70;99.90
68387;DHT22;55338;43.062;25.624;2022-12-07T08:39:08;10.20;99.90
68387;DHT22;55338;43.062;25.624;2022-12-07T08:41:34;10.40;99.90
68387;DHT22;55338;43.062;25.624;2022-12-07T08:44:00;10.30;99.90
68387;DHT22;55338;43.062;25.624;2022-12-07T08:46:32;10.40;99.90
68387;DHT22;55338;43.062;25.624;2022-12-07T08:49:13;10.40;99.90
68387;DHT22;55338;43.062;25.624;2022-12-07T08:51:40;10.40;99.90
68387;DHT22;55338;43.062;25.624;2022-12-07T08:54:09;10.60;99.90
68387;DHT22;55338;43.062;25.624;2022-12-07T08:56:36;11.10;99.90
68387;DHT22;55338;43.062;25.624;2022-12-07T08:59:02;12.10;99.90
68387;DHT22;55338;43.062;25.624;2022-12-07T09:01:28;12.70;95.80
68387;DHT22;55338;43.062;25.624;2022-12-07T09:03:56;12.70;95.10
68387;DHT22;55338;43.062;25.624;2022-12-07T09:06:22;12.80;94.40
68387;DHT22;55338;43.062;25.624;2022-12-07T09:08:51;13.00;94.10
68387;DHT22;55338;43.062;25.624;2022-12-07T09:11:18;12.90;92.30
68387;DHT22;55338;43.062;25.624;2022-12-07T09:13:44;12.80;92.30
68387;DHT22;55338;43.062;25.624;2022-12-07T09:16:09;12.80;92.40
68387;DHT22;55338;43.062;25.624;2022-12-07T09:18:35;12.60;93.60
68387;DHT22;55338;43.062;25.624;2022-12-07T09:21:02;12.60;92.80
68387;DHT22;55338;43.062;25.624;2022-12-07T09:23:27;12.70;93.00
68387;DHT22;55338;43.062;25.624;2022-12-07T09:25:53;13.10;92.20
68387;DHT22;55338;43.062;25.624;2022-12-07T09:28:19;13.10;90.50
68387;DHT22;55338;43.062;25.624;2022-12-07T09:30:48;13.20;90.60
68387;DHT22;55338;43.062;25.624;2022-12-07T09:33:15;13.00;91.00
68387;DHT22;55338;43.062;25.624;2022-12-07T09:35:45;12.60;91.20
68387;DHT22;55338;43.062;25.624;2022-12-07T09:38:12;12.50;93.30
68387;DHT22;55338;43.062;25.624;2022-12-07T09:40:38;12.50;92.40
68387;DHT22;55338;43.062;25.624;2022-12-07T09:43:04;12.30;93.60
68387;DHT22;55338;43.062;25.624;2022-12-07T09:45:35;12.20;94.50
68387;DHT22;55338;43.062;25.624;2022-12-07T09:48:05;12.00;94.10
68387;DHT22;55338;43.062;25.624;2022-12-07T09:50:31;11.40;94.30
68387;DHT22;55338;43.062;25.624;2022-12-07T09:53:36;12.30;93.60
68387;DHT22;55338;43.062;25.624;2022-12-07T09:56:02;12.70;92.10
68387;DHT22;55338;43.062;25.624;2022-12-07T09:58:29;13.30;90.70
68387;DHT22;55338;43.062;25.624;2022-12-07T10:01:05;13.80;87.90
68387;DHT22;55338;43.062;25.624;2022-12-07T10:03:38;14.60;87.60
68387;DHT22;55338;43.062;25.624;2022-12-07T10:06:05;15.00;83.70
68387;DHT22;55338;43.062;25.624;2022-12-07T10:08:32;15.00;83.50
68387;DHT22;55338;43.062;25.624;2022-12-07T10:10:59;15.00;82.50
68387;DHT22;55338;43.062;25.624;2022-12-07T10:13:36;15.00;81.70
68387;DHT22;55338;43.062;25.624;2022-12-07T10:16:02;14.80;82.70
68387;DHT22;55338;43.062;25.624;2022-12-07T10:18:39;14.60;83.80
68387;DHT22;55338;43.062;25.624;2022-12-07T10:21:15;13.90;87.00
68387;DHT22;55338;43.062;25.624;2022-12-07T10:29:21;15.90;80.20
68387;DHT22;55338;43.062;25.624;2022-12-07T10:31:53;15.90;79.70
68387;DHT22;55338;43.062;25.624;2022-12-07T10:34:31;15.80;80.50
68387;DHT22;55338;43.062;25.624;2022-12-07T10:42:33;16.00;81.20
68387;DHT22;55338;43.062;25.624;2022-12-07T10:45:15;16.30;80.30
68387;DHT22;55338;43.062;25.624;2022-12-07T10:53:11;16.80;76.70
68387;DHT22;55338;43.062;25.624;2022-12-07T11:11:36;17.00;76.70
68387;DHT22;55338;43.062;25.624;2022-12-07T11:22:17;17.20;74.60
68387;DHT22;55338;43.062;25.624;2022-12-07T11:25:03;17.00;74.70
68387;DHT22;55338;43.062;25.624;2022-12-07T11:27:45;17.00;76.10
68387;DHT22;55338;43.062;25.624;2022-12-07T11:30:21;16.60;75.40
68387;DHT22;55338;43.062;25.624;2022-12-07T11:41:50;17.50;72.60
68387;DHT22;55338;43.062;25.624;2022-12-07T11:47:19;19.40;66.10
68387;DHT22;55338;43.062;25.624;2022-12-07T11:52:48;20.70;60.00
68387;DHT22;55338;43.062;25.624;2022-12-07T11:55:32;20.70;59.50
68387;DHT22;55338;43.062;25.624;2022-12-07T11:58:18;19.70;62.90
68387;DHT22;55338;43.062;25.624;2022-12-07T12:00:49;20.00;62.00
68387;DHT22;55338;43.062;25.624;2022-12-07T12:03:25;20.50;60.40
68387;DHT22;55338;43.062;25.624;2022-12-07T12:05:56;20.50;60.20
68387;DHT22;55338;43.062;25.624;2022-12-07T12:08:28;21.10;58.20
68387;DHT22;55338;43.062;25.624;2022-12-07T12:13:55;21.00;57.90
68387;DHT22;55338;43.062;25.624;2022-12-07T12:24:38;21.00;57.80
68387;DHT22;55338;43.062;25.624;2022-12-07T12:27:09;21.40;57.70
68387;DHT22;55338;43.062;25.624;2022-12-07T12:29:40;22.00;56.30
68387;DHT22;55338;43.062;25.624;2022-12-07T12:32:29;22.50;54.40
68387;DHT22;55338;43.062;25.624;2022-12-07T12:37:47;22.80;52.40
68387;DHT22;55338;43.062;25.624;2022-12-07T12:42:53;23.10;53.40
68387;DHT22;55338;43.062;25.624;2022-12-07T12:45:24;23.40;50.90
68387;DHT22;55338;43.062;25.624;2022-12-07T12:47:58;23.00;51.50
68387;DHT22;55338;43.062;25.624;2022-12-07T12:50:30;23.10;50.70
68387;DHT22;55338;43.062;25.624;2022-12-07T12:53:02;22.70;51.20
68387;DHT22;55338;43.062;25.624;2022-12-07T13:00:44;22.70;52.50
68387;DHT22;55338;43.062;25.624;2022-12-07T13:03:30;22.00;52.80
68387;DHT22;55338;43.062;25.624;2022-12-07T13:08:52;21.30;55.60
68387;DHT22;55338;43.062;25.624;2022-12-07T13:11:40;20.60;56.00
68387;DHT22;55338;43.062;25.624;2022-12-07T13:19:57;18.40;68.20
68387;DHT22;55338;43.062;25.624;2022-12-07T13:27:46;16.90;74.40
68387;DHT22;55338;43.062;25.624;2022-12-07T13:30:17;16.50;76.20
68387;DHT22;55338;43.062;25.624;2022-12-07T13:32:43;16.00;80.00
68387;DHT22;55338;43.062;25.624;2022-12-07T13:35:34;15.60;81.80
68387;DHT22;55338;43.062;25.624;2022-12-07T13:38:22;15.10;84.20
68387;DHT22;55338;43.062;25.624;2022-12-07T13:41:15;14.70;87.10
68387;DHT22;55338;43.062;25.624;2022-12-07T13:43:59;14.20;90.10
68387;DHT22;55338;43.062;25.624;2022-12-07T13:49:18;13.50;95.00
68387;DHT22;55338;43.062;25.624;2022-12-07T13:51:45;13.40;96.90
68387;DHT22;55338;43.062;25.624;2022-12-07T13:54:13;13.30;97.60
68387;DHT22;55338;43.062;25.624;2022-12-07T13:56:39;13.10;99.20
68387;DHT22;55338;43.062;25.624;2022-12-07T13:59:16;13.10;99.40
68387;DHT22;55338;43.062;25.624;2022-12-07T14:01:42;12.90;99.90
68387;DHT22;55338;43.062;25.624;2022-12-07T14:04:34;12.70;99.90
68387;DHT22;55338;43.062;25.624;2022-12-07T14:07:20;12.60;99.90
68387;DHT22;55338;43.062;25.624;2022-12-07T14:12:25;12.40;99.90
68387;DHT22;55338;43.062;25.624;2022-12-07T14:14:52;12.30;99.90
68387;DHT22;55338;43.062;25.624;2022-12-07T14:17:24;12.20;99.90
68387;DHT22;55338;43.062;25.624;2022-12-07T14:27:39;11.70;99.90
68387;DHT22;55338;43.062;25.624;2022-12-07T14:30:05;11.50;99.90
68387;DHT22;55338;43.062;25.624;2022-12-07T14:32:35;11.40;99.90
68387;DHT22;55338;43.062;25.624;2022-12-07T14:35:09;11.30;99.90
68387;DHT22;55338;43.062;25.624;2022-12-07T14:37:37;10.70;99.90
68387;DHT22;55338;43.062;25.624;2022-12-07T14:40:04;11.20;99.90
68387;DHT22;55338;43.062;25.624;2022-12-07T14:42:31;11.00;99.90
68387;DHT22;55338;43.062;25.624;2022-12-07T14:44:59;10.90;99.90
68387;DHT22;55338;43.062;25.624;2022-12-07T14:47:26;10.80;99.90
68387;DHT22;55338;43.062;25.624;2022-12-07T14:49:53;10.70;99.90
68387;DHT22;55338;43.062;25.624;2022-12-07T14:52:29;10.60;99.90
68387;DHT22;55338;43.062;25.624;2022-12-07T14:54:55;10.30;99.90
68387;DHT22;55338;43.062;25.624;2022-12-07T14:57:21;10.20;99.90
68387;DHT22;55338;43.062;25.624;2022-12-07T14:59:47;10.10;99.90
68387;DHT22;55338;43.062;25.624;2022-12-07T15:02:14;10.10;99.90
68387;DHT22;55338;43.062;25.624;2022-12-07T15:04:41;9.90;99.90
68387;DHT22;55338;43.062;25.624;2022-12-07T15:07:13;9.90;99.90
68387;DHT22;55338;43.062;25.624;2022-12-07T15:09:40;9.80;99.90
68387;DHT22;55338;43.062;25.624;2022-12-07T15:12:06;9.70;99.90
68387;DHT22;55338;43.062;25.624;2022-12-07T15:14:32;9.60;99.90
68387;DHT22;55338;43.062;25.624;2022-12-07T15:16:58;9.60;99.90
68387;DHT22;55338;43.062;25.624;2022-12-07T15:19:24;9.50;99.90
68387;DHT22;55338;43.062;25.624;2022-12-07T15:21:53;9.40;99.90
68387;DHT22;55338;43.062;25.624;2022-12-07T15:24:19;9.40;99.90
68387;DHT22;55338;43.062;25.624;2022-12-07T15:26:46;9.30;99.90
68387;DHT22;55338;43.062;25.624;2022-12-07T15:29:12;9.20;99.90
68387;DHT22;55338;43.062;25.624;2022-12-07T15:31:40;9.10;99.90
68387;DHT22;55338;43.062;25.624;2022-12-07T15:34:06;9.00;99.90
68387;DHT22;55338;43.062;25.624;2022-12-07T15:36:33;8.90;99.90
68387;DHT22;55338;43.062;25.624;2022-12-07T15:38:59;8.80;99.90
68387;DHT22;55338;43.062;25.624;2022-12-07T15:41:25;8.70;99.90
68387;DHT22;55338;43.062;25.624;2022-12-07T15:43:50;8.60;99.90
68387;DHT22;55338;43.062;25.624;2022-12-07T15:46:37;8.50;99.90
68387;DHT22;55338;43.062;25.624;2022-12-07T15:49:14;8.50;99.90
68387;DHT22;55338;43.062;25.624;2022-12-07T15:51:41;8.40;99.90
68387;DHT22;55338;43.062;25.624;2022-12-07T15:54:18;8.30;99.90
68387;DHT22;55338;43.062;25.624;2022-12-07T15:56:44;8.30;99.90
68387;DHT22;55338;43.062;25.624;2022-12-07T15:59:10;8.20;99.90
68387;DHT22;55338;43.062;25.624;2022-12-07T16:01:36;8.10;99.90
68387;DHT22;55338;43.062;25.624;2022-12-07T16:04:01;8.00;99.90
68387;DHT22;55338;43.062;25.624;2022-12-07T16:06:27;7.90;99.90
68387;DHT22;55338;43.062;25.624;2022-12-07T16:08:53;7.80;99.90
68387;DHT22;55338;43.062;25.624;2022-12-07T16:11:20;7.80;99.90
68387;DHT22;55338;43.062;25.624;2022-12-07T16:13:45;7.70;99.90
68387;DHT22;55338;43.062;25.624;2022-12-07T16:16:14;7.60;99.90
68387;DHT22;55338;43.062;25.624;2022-12-07T16:18:41;7.60;99.90
68387;DHT22;55338;43.062;25.624;2022-12-07T16:21:07;7.60;99.90
68387;DHT22;55338;43.062;25.624;2022-12-07T16:23:32;7.60;99.90
68387;DHT22;55338;43.062;25.624;2022-12-07T16:26:24;7.50;99.90
68387;DHT22;55338;43.062;25.624;2022-12-07T16:28:51;7.40;99.90
68387;DHT22;55338;43.062;25.624;2022-12-07T16:31:19;7.40;99.90
68387;DHT22;55338;43.062;25.624;2022-12-07T16:33:45;7.30;99.90
68387;DHT22;55338;43.062;25.624;2022-12-07T16:36:13;7.20;99.90
68387;DHT22;55338;43.062;25.624;2022-12-07T16:38:39;7.20;99.90
68387;DHT22;55338;43.062;25.624;2022-12-07T16:41:06;7.10;99.90
68387;DHT22;55338;43.062;25.624;2022-12-07T16:43:32;7.20;99.90
68387;DHT22;55338;43.062;25.624;2022-12-07T16:45:59;7.10;99.90
68387;DHT22;55338;43.062;25.624;2022-12-07T16:48:25;7.10;99.90
68387;DHT22;55338;43.062;25.624;2022-12-07T16:50:51;7.00;99.90
68387;DHT22;55338;43.062;25.624;2022-12-07T16:53:20;6.90;99.90
68387;DHT22;55338;43.062;25.624;2022-12-07T16:55:47;6.80;99.90
68387;DHT22;55338;43.062;25.624;2022-12-07T16:58:14;6.70;99.90
68387;DHT22;55338;43.062;25.624;2022-12-07T17:00:41;6.70;99.90
68387;DHT22;55338;43.062;25.624;2022-12-07T17:03:08;6.60;99.90
68387;DHT22;55338;43.062;25.624;2022-12-07T17:05:43;6.60;99.90
68387;DHT22;55338;43.062;25.624;2022-12-07T17:08:11;6.60;99.90
68387;DHT22;55338;43.062;25.624;2022-12-07T17:10:39;6.60;99.90
68387;DHT22;55338;43.062;25.624;2022-12-07T17:13:05;6.60;99.90
68387;DHT22;55338;43.062;25.624;2022-12-07T17:16:09;6.40;99.90
68387;DHT22;55338;43.062;25.624;2022-12-07T17:18:35;6.30;99.90
68387;DHT22;55338;43.062;25.624;2022-12-07T17:21:08;6.30;99.90
68387;DHT22;55338;43.062;25.624;2022-12-07T17:23:35;6.20;99.90
68387;DHT22;55338;43.062;25.624;2022-12-07T17:26:14;6.20;99.90
68387;DHT22;55338;43.062;25.624;2022-12-07T17:28:40;6.20;99.90
68387;DHT22;55338;43.062;25.624;2022-12-07T17:31:08;6.20;99.90
68387;DHT22;55338;43.062;25.624;2022-12-07T17:33:35;6.10;99.90
68387;DHT22;55338;43.062;25.624;2022-12-07T17:36:01;6.10;99.90
68387;DHT22;55338;43.062;25.624;2022-12-07T17:38:28;6.00;99.90
68387;DHT22;55338;43.062;25.624;2022-12-07T17:40:54;6.00;99.90
68387;DHT22;55338;43.062;25.624;2022-12-07T17:43:19;6.00;99.90
68387;DHT22;55338;43.062;25.624;2022-12-07T17:45:45;5.90;99.90
68387;DHT22;55338;43.062;25.624;2022-12-07T17:48:11;5.80;99.90
68387;DHT22;55338;43.062;25.624;2022-12-07T17:50:38;5.80;99.90
68387;DHT22;55338;43.062;25.624;2022-12-07T17:53:23;5.80;99.90
68387;DHT22;55338;43.062;25.624;2022-12-07T17:55:52;5.80;99.90
68387;DHT22;55338;43.062;25.624;2022-12-07T17:58:18;5.80;99.90
68387;DHT22;55338;43.062;25.624;2022-12-07T18:00:43;5.70;99.90
68387;DHT22;55338;43.062;25.624;2022-12-07T18:03:09;5.70;99.90
68387;DHT22;55338;43.062;25.624;2022-12-07T18:05:42;5.70;99.90